Time;durP1;ratioP1;P1;durP2;ratioP2;P2;SDS_P1;SDS_P2;PMS_P1;PMS_P2;Temp;Humidity;BMP_temperature;BMP_pressure;BME280_temperature;BME280_humidity;BME280_pressure;Samples;Min_cycle;Max_cycle;Signal;HPM_P1;HPM_P2
2021/03/09 00:00:49;;;;;;;11.95;6.03;;;8.10;76.10;;;;;;5112789;28;20523;-71
2021/03/09 00:03:14;;;;;;;16.45;9.30;;;8.10;76.10;;;;;;5115042;28;20055;-72
2021/03/09 00:05:40;;;;;;;15.35;6.97;;;8.10;76.00;;;;;;5114788;28;20031;-71
2021/03/09 00:08:06;;;;;;;16.35;9.10;;;8.10;76.00;;;;;;5115268;28;20055;-71
2021/03/09 00:10:32;;;;;;;17.15;8.07;;;8.20;76.00;;;;;;5114819;28;20043;-71
2021/03/09 00:12:57;;;;;;;11.70;5.35;;;8.20;75.90;;;;;;5114754;28;20030;-72
2021/03/09 00:15:23;;;;;;;19.15;9.63;;;8.20;75.60;;;;;;5115354;28;20114;-71
2021/03/09 00:17:49;;;;;;;20.88;9.73;;;8.20;75.50;;;;;;5114802;28;20027;-71
2021/03/09 00:20:15;;;;;;;16.08;8.30;;;8.20;75.60;;;;;;5111839;28;20460;-71
2021/03/09 00:22:43;;;;;;;18.63;8.80;;;8.20;75.60;;;;;;5106157;28;20027;-72
2021/03/09 00:25:10;;;;;;;19.50;9.85;;;8.20;75.60;;;;;;5114200;28;20019;-71
2021/03/09 00:27:35;;;;;;;21.33;10.80;;;8.20;75.60;;;;;;5114686;28;20185;-71
2021/03/09 00:30:01;;;;;;;14.45;6.72;;;8.20;75.50;;;;;;5114926;28;20110;-71
2021/03/09 00:32:27;;;;;;;16.10;7.45;;;8.20;75.60;;;;;;5114564;28;20024;-71
2021/03/09 00:34:56;;;;;;;21.45;9.93;;;8.20;75.50;;;;;;5114718;28;20387;-72
2021/03/09 00:37:21;;;;;;;17.92;8.73;;;8.20;75.40;;;;;;5114182;28;20051;-71
2021/03/09 00:39:47;;;;;;;10.45;5.75;;;8.20;75.40;;;;;;5114685;28;20104;-71
2021/03/09 00:42:13;;;;;;;13.77;6.72;;;8.30;75.40;;;;;;5114237;28;20458;-71
2021/03/09 00:44:38;;;;;;;12.13;5.32;;;8.20;75.30;;;;;;5114113;28;20028;-71
2021/03/09 00:47:04;;;;;;;25.30;11.32;;;8.20;75.30;;;;;;5114471;28;20028;-71
2021/03/09 00:49:30;;;;;;;22.15;11.00;;;8.20;75.30;;;;;;5113699;28;20420;-71
2021/03/09 00:51:58;;;;;;;21.38;9.73;;;8.20;75.40;;;;;;5113701;28;20024;-71
2021/03/09 00:54:24;;;;;;;21.08;10.82;;;8.20;75.40;;;;;;5100375;28;20118;-71
2021/03/09 00:56:52;;;;;;;20.23;10.35;;;8.30;75.50;;;;;;5114376;28;20038;-71
2021/03/09 00:59:18;;;;;;;18.52;9.93;;;8.30;75.40;;;;;;5113763;28;20063;-71
2021/03/09 01:01:44;;;;;;;15.98;8.00;;;8.30;75.30;;;;;;5113539;28;20027;-72
2021/03/09 01:04:09;;;;;;;18.63;9.93;;;8.30;75.30;;;;;;5114094;28;20359;-71
2021/03/09 01:06:35;;;;;;;20.90;9.90;;;8.30;75.20;;;;;;5113514;28;20538;-71
2021/03/09 01:09:01;;;;;;;9.88;5.22;;;8.30;75.10;;;;;;5113871;28;20080;-71
2021/03/09 01:11:26;;;;;;;17.50;7.95;;;8.30;75.10;;;;;;5114182;28;20163;-71
2021/03/09 01:13:52;;;;;;;18.55;10.18;;;8.30;74.90;;;;;;5113689;28;20107;-71
2021/03/09 01:16:20;;;;;;;16.33;7.72;;;8.30;75.00;;;;;;5113732;28;20413;-71
2021/03/09 01:18:46;;;;;;;18.35;10.85;;;8.20;75.00;;;;;;5113986;28;20217;-71
2021/03/09 01:21:12;;;;;;;17.15;7.28;;;8.30;75.20;;;;;;5113449;28;20118;-71
2021/03/09 01:23:37;;;;;;;16.90;8.80;;;8.20;75.10;;;;;;5112175;28;20024;-71
2021/03/09 01:26:03;;;;;;;17.80;8.27;;;8.20;75.20;;;;;;5113641;28;20032;-71
2021/03/09 01:28:29;;;;;;;18.40;9.68;;;8.20;75.10;;;;;;5112963;28;20047;-71
2021/03/09 01:30:57;;;;;;;19.52;9.52;;;8.30;75.20;;;;;;5113609;28;20020;-71
2021/03/09 01:33:23;;;;;;;11.45;4.90;;;8.20;75.00;;;;;;5113678;28;20031;-71
2021/03/09 01:35:49;;;;;;;14.85;8.32;;;8.20;75.00;;;;;;5113154;28;20023;-71
2021/03/09 01:38:14;;;;;;;10.40;5.75;;;8.30;75.10;;;;;;5113295;28;20183;-71
2021/03/09 01:40:41;;;;;;;16.95;9.15;;;8.20;74.90;;;;;;5110854;28;20526;-71
2021/03/09 01:43:06;;;;;;;21.52;11.63;;;8.20;75.00;;;;;;5113675;28;20039;-71
2021/03/09 01:45:33;;;;;;;17.02;9.38;;;8.20;75.20;;;;;;5112721;28;20056;-71
2021/03/09 01:48:04;;;;;;;19.30;9.88;;;8.20;75.10;;;;;;5112762;28;20177;-71
2021/03/09 01:50:32;;;;;;;15.85;8.40;;;8.20;75.20;;;;;;5113383;28;20059;-71
2021/03/09 01:53:03;;;;;;;8.20;4.35;;;8.30;75.20;;;;;;5113296;28;20039;-71
2021/03/09 01:55:28;;;;;;;18.95;8.70;;;8.30;75.10;;;;;;5112903;28;20540;-71
2021/03/09 01:57:55;;;;;;;19.67;11.50;;;8.30;75.00;;;;;;5113211;28;20028;-71
2021/03/09 02:00:21;;;;;;;10.85;5.72;;;8.20;75.00;;;;;;5113010;28;20502;-71
2021/03/09 02:02:46;;;;;;;16.05;8.75;;;8.20;75.00;;;;;;5112838;28;20119;-71
2021/03/09 02:05:12;;;;;;;9.95;4.13;;;8.20;75.10;;;;;;5111652;28;20050;-71
2021/03/09 02:07:39;;;;;;;12.63;6.40;;;8.30;75.20;;;;;;5113085;28;20474;-70
2021/03/09 02:10:09;;;;;;;23.17;11.10;;;8.30;75.10;;;;;;5113052;28;20084;-70
2021/03/09 02:12:39;;;;;;;21.67;11.68;;;8.20;75.10;;;;;;5113168;28;20473;-71
2021/03/09 02:15:39;;;;;;;11.50;5.22;;;8.30;75.20;;;;;;5113149;28;20055;-70
2021/03/09 02:18:19;;;;;;;21.10;10.00;;;8.30;75.20;;;;;;5102282;28;20028;-71
2021/03/09 02:20:53;;;;;;;15.85;7.80;;;8.30;75.10;;;;;;5111712;28;20062;-70
2021/03/09 02:23:51;;;;;;;24.80;10.02;;;8.30;75.00;;;;;;5112677;28;20091;-71
2021/03/09 02:26:20;;;;;;;13.93;7.03;;;8.40;75.20;;;;;;5099427;28;20399;-70
2021/03/09 02:29:24;;;;;;;13.77;6.00;;;8.30;74.80;;;;;;5112753;28;20506;-71
2021/03/09 02:31:53;;;;;;;7.93;5.35;;;8.30;75.00;;;;;;5097274;28;20123;-70
2021/03/09 02:34:58;;;;;;;12.10;4.97;;;8.30;74.90;;;;;;5112506;28;20031;-71
2021/03/09 02:37:30;;;;;;;20.48;10.18;;;8.30;75.00;;;;;;5109417;28;20063;-71
2021/03/09 02:39:57;;;;;;;16.55;8.45;;;8.20;75.00;;;;;;5112877;28;20063;-70
2021/03/09 02:42:27;;;;;;;17.65;8.15;;;8.20;75.00;;;;;;5112917;28;20035;-70
2021/03/09 02:44:58;;;;;;;17.73;9.20;;;8.20;75.40;;;;;;5112312;28;20053;-70
2021/03/09 02:47:25;;;;;;;21.38;10.45;;;8.20;75.20;;;;;;5112865;28;20177;-70
2021/03/09 02:49:53;;;;;;;22.17;9.70;;;8.20;75.20;;;;;;5112575;28;20028;-70
2021/03/09 02:52:21;;;;;;;18.38;8.07;;;8.20;75.30;;;;;;5112246;28;20027;-71
2021/03/09 02:54:49;;;;;;;21.15;11.27;;;8.30;75.90;;;;;;5112307;28;20497;-70
2021/03/09 02:57:16;;;;;;;22.88;10.98;;;8.30;75.30;;;;;;5112747;28;20038;-70
2021/03/09 02:59:43;;;;;;;22.17;11.77;;;8.30;75.30;;;;;;5111947;28;20073;-71
2021/03/09 03:02:11;;;;;;;18.58;7.63;;;8.30;75.40;;;;;;5112454;28;20095;-71
2021/03/09 03:04:43;;;;;;;21.77;11.23;;;8.30;75.30;;;;;;5112797;28;20035;-71
2021/03/09 03:07:11;;;;;;;20.80;9.57;;;8.30;75.40;;;;;;5112206;28;20047;-71
2021/03/09 03:09:38;;;;;;;21.75;10.55;;;8.30;75.30;;;;;;5112373;28;20024;-71
2021/03/09 03:12:04;;;;;;;20.90;10.02;;;8.30;75.20;;;;;;5111910;28;20031;-71
2021/03/09 03:14:31;;;;;;;21.15;10.40;;;8.30;75.30;;;;;;5112512;28;20423;-71
2021/03/09 03:17:01;;;;;;;20.45;10.65;;;8.30;75.30;;;;;;5112349;28;20031;-71
2021/03/09 03:19:28;;;;;;;22.77;11.57;;;8.30;75.30;;;;;;5112234;28;20060;-71
2021/03/09 03:21:54;;;;;;;14.63;6.78;;;8.30;75.50;;;;;;5112141;28;20046;-71
2021/03/09 03:24:20;;;;;;;21.10;10.15;;;8.30;75.30;;;;;;5113768;28;20024;-71
2021/03/09 03:26:47;;;;;;;24.50;11.75;;;8.30;75.30;;;;;;5115797;28;20520;-71
2021/03/09 03:29:14;;;;;;;21.92;11.02;;;8.30;75.50;;;;;;5115772;28;20036;-71
2021/03/09 03:31:40;;;;;;;19.17;9.82;;;8.30;75.50;;;;;;5115957;28;20036;-71
2021/03/09 03:34:09;;;;;;;18.67;8.93;;;8.40;75.60;;;;;;5115325;28;20028;-71
2021/03/09 03:36:36;;;;;;;19.83;10.23;;;8.40;75.70;;;;;;5115711;28;20073;-71
2021/03/09 03:39:04;;;;;;;18.27;9.82;;;8.40;75.70;;;;;;5115761;28;20027;-71
2021/03/09 03:41:29;;;;;;;17.27;8.80;;;8.40;75.60;;;;;;5115571;28;20050;-71
2021/03/09 03:43:55;;;;;;;23.60;10.82;;;8.40;75.50;;;;;;5115658;28;20474;-71
2021/03/09 03:46:21;;;;;;;17.23;8.90;;;8.40;75.60;;;;;;5115821;27;20115;-71
2021/03/09 03:48:47;;;;;;;17.15;9.35;;;8.50;75.60;;;;;;5115124;28;20091;-71
2021/03/09 03:51:17;;;;;;;21.23;10.48;;;8.50;75.60;;;;;;5115245;28;20032;-71
2021/03/09 03:54:19;;;;;;;18.50;9.32;;;8.50;75.70;;;;;;5114898;28;20043;-71
2021/03/09 03:56:56;;;;;;;19.13;8.82;;;8.50;75.70;;;;;;5115554;28;20065;-71
2021/03/09 03:59:26;;;;;;;21.52;9.90;;;8.50;75.60;;;;;;5115589;28;20417;-71
2021/03/09 04:01:54;;;;;;;17.40;9.27;;;8.50;75.70;;;;;;5114768;28;20418;-71
2021/03/09 04:04:23;;;;;;;18.52;9.13;;;8.50;75.80;;;;;;5115268;28;20471;-70
2021/03/09 04:06:52;;;;;;;17.90;8.73;;;8.50;75.70;;;;;;5114479;28;20052;-71
2021/03/09 04:09:18;;;;;;;18.08;8.70;;;8.50;75.70;;;;;;5114813;28;20080;-71
2021/03/09 04:11:46;;;;;;;19.90;10.18;;;8.50;75.70;;;;;;5114937;28;20032;-70
2021/03/09 04:14:14;;;;;;;17.65;8.20;;;8.60;75.80;;;;;;5115167;28;20035;-71
2021/03/09 04:16:42;;;;;;;18.67;10.68;;;8.50;75.70;;;;;;5114490;28;20049;-71
2021/03/09 04:19:11;;;;;;;19.40;9.77;;;8.50;76.40;;;;;;5115180;28;20040;-71
2021/03/09 04:21:37;;;;;;;24.15;10.57;;;8.60;76.00;;;;;;5115068;28;20383;-71
2021/03/09 04:24:04;;;;;;;18.08;9.10;;;8.60;76.00;;;;;;5114482;28;20031;-71
2021/03/09 04:26:30;;;;;;;16.23;9.23;;;8.60;76.10;;;;;;5114703;28;20505;-71
2021/03/09 04:28:57;;;;;;;17.27;9.13;;;8.60;76.20;;;;;;5114563;28;20058;-71
2021/03/09 04:31:24;;;;;;;17.23;9.50;;;8.60;76.20;;;;;;5104582;28;20028;-71
2021/03/09 04:33:50;;;;;;;17.77;8.85;;;8.60;76.30;;;;;;5110590;28;20062;-71
2021/03/09 04:36:17;;;;;;;17.35;8.73;;;8.60;76.30;;;;;;5113763;28;20042;-71
2021/03/09 04:38:44;;;;;;;15.32;8.98;;;8.60;76.40;;;;;;5114521;28;20055;-71
2021/03/09 04:41:10;;;;;;;16.40;8.23;;;8.60;76.40;;;;;;5114604;28;20031;-71
2021/03/09 04:43:37;;;;;;;17.27;8.60;;;8.60;76.50;;;;;;5114253;28;20106;-71
2021/03/09 04:46:03;;;;;;;16.45;8.82;;;8.60;76.60;;;;;;5114464;28;20035;-72
2021/03/09 04:48:30;;;;;;;19.50;10.10;;;8.60;76.60;;;;;;5114685;28;20036;-71
2021/03/09 04:51:05;;;;;;;19.60;9.52;;;8.60;76.70;;;;;;5114034;28;20039;-71
2021/03/09 04:53:31;;;;;;;18.08;9.05;;;8.60;76.80;;;;;;5107914;28;20024;-71
2021/03/09 04:55:58;;;;;;;17.25;8.70;;;8.60;76.80;;;;;;5106455;28;20498;-71
2021/03/09 04:58:25;;;;;;;19.70;10.73;;;8.60;76.90;;;;;;5113783;28;20075;-71
2021/03/09 05:00:52;;;;;;;16.83;8.90;;;8.60;76.90;;;;;;5114332;27;20020;-71
2021/03/09 05:03:18;;;;;;;18.88;8.55;;;8.60;77.00;;;;;;5114232;28;20165;-71
2021/03/09 05:05:44;;;;;;;15.25;8.00;;;8.60;77.00;;;;;;5113630;27;20466;-71
2021/03/09 05:08:11;;;;;;;17.20;9.38;;;8.60;77.00;;;;;;5113768;28;20165;-71
2021/03/09 05:10:40;;;;;;;16.80;8.73;;;8.60;77.10;;;;;;5114133;28;20031;-71
2021/03/09 05:13:05;;;;;;;18.63;8.95;;;8.60;77.10;;;;;;5113870;28;20141;-71
2021/03/09 05:15:31;;;;;;;16.98;8.95;;;8.60;77.20;;;;;;5113827;28;20114;-71
2021/03/09 05:17:58;;;;;;;19.27;9.02;;;8.70;77.30;;;;;;5114155;28;20078;-71
2021/03/09 05:20:23;;;;;;;16.70;8.75;;;8.60;77.30;;;;;;5113327;28;20471;-71
2021/03/09 05:22:49;;;;;;;17.52;8.35;;;8.60;77.30;;;;;;5113703;28;20097;-71
2021/03/09 05:25:16;;;;;;;17.42;7.47;;;8.60;77.30;;;;;;5113647;28;20390;-71
2021/03/09 05:27:43;;;;;;;17.35;7.22;;;8.60;77.30;;;;;;5113302;28;20038;-71
2021/03/09 05:30:13;;;;;;;18.45;8.77;;;8.60;77.30;;;;;;5113572;28;20031;-70
2021/03/09 05:32:39;;;;;;;17.13;9.45;;;8.60;77.30;;;;;;5099501;28;20032;-70
2021/03/09 05:35:06;;;;;;;15.50;8.05;;;8.60;77.30;;;;;;5112857;28;20039;-71
2021/03/09 05:37:32;;;;;;;16.65;8.43;;;8.60;77.30;;;;;;5108842;28;20032;-71
2021/03/09 05:39:58;;;;;;;16.33;8.00;;;8.60;77.20;;;;;;5103390;28;20027;-71
2021/03/09 05:42:23;;;;;;;15.32;8.63;;;8.60;77.20;;;;;;5113161;28;20115;-71
2021/03/09 05:44:50;;;;;;;20.75;10.23;;;8.70;77.10;;;;;;5112818;28;20030;-71
2021/03/09 05:47:15;;;;;;;16.35;7.97;;;8.70;77.20;;;;;;5111308;28;20031;-71
2021/03/09 05:49:45;;;;;;;17.85;8.98;;;8.70;77.20;;;;;;5103536;28;20069;-71
2021/03/09 05:52:11;;;;;;;15.00;8.43;;;8.70;77.30;;;;;;5112856;28;20024;-71
2021/03/09 05:54:37;;;;;;;17.00;8.43;;;8.70;77.30;;;;;;5112142;28;20085;-71
2021/03/09 05:57:03;;;;;;;18.83;9.90;;;8.70;77.30;;;;;;5112969;28;20431;-71
2021/03/09 05:59:28;;;;;;;20.80;8.93;;;8.70;77.30;;;;;;5113294;28;20483;-71
2021/03/09 06:01:54;;;;;;;22.88;8.43;;;8.70;77.40;;;;;;5112744;28;20605;-71
2021/03/09 06:04:20;;;;;;;19.25;9.85;;;8.70;77.50;;;;;;5112970;28;20114;-71
2021/03/09 06:06:46;;;;;;;20.23;10.38;;;8.80;77.60;;;;;;5112909;28;20039;-71
2021/03/09 06:09:35;;;;;;;25.23;9.75;;;8.80;77.70;;;;;;5111825;28;20062;-71
2021/03/09 06:12:12;;;;;;;20.52;10.38;;;8.80;77.70;;;;;;5112834;28;20027;-73
2021/03/09 06:14:40;;;;;;;17.50;8.00;;;8.70;77.70;;;;;;5113052;28;20028;-71
2021/03/09 06:17:09;;;;;;;22.27;10.40;;;8.70;77.70;;;;;;5112533;28;20034;-76
2021/03/09 06:19:47;;;;;;;22.67;10.00;;;8.70;77.80;;;;;;5106915;28;20489;-72
2021/03/09 06:22:17;;;;;;;18.33;9.50;;;8.80;78.00;;;;;;5110243;28;20402;-73
2021/03/09 06:24:44;;;;;;;18.25;9.25;;;8.70;77.90;;;;;;5110796;28;20489;-73
2021/03/09 06:27:31;;;;;;;19.73;9.50;;;8.70;78.10;;;;;;5109323;28;20364;-72
2021/03/09 06:29:57;;;;;;;28.10;9.60;;;8.70;78.30;;;;;;5105339;28;20526;-71
2021/03/09 06:32:24;;;;;;;19.92;9.25;;;8.70;78.30;;;;;;5109507;28;20030;-72
2021/03/09 06:34:53;;;;;;;22.55;10.35;;;8.70;78.30;;;;;;5111830;28;20028;-72
2021/03/09 06:37:23;;;;;;;21.85;9.48;;;8.70;78.40;;;;;;5111418;28;20108;-73
2021/03/09 06:39:57;;;;;;;21.95;9.60;;;8.70;78.40;;;;;;5111778;28;20040;-72
2021/03/09 06:42:32;;;;;;;20.15;10.52;;;8.80;78.40;;;;;;5112332;28;20588;-73
2021/03/09 06:45:03;;;;;;;23.48;9.93;;;8.80;78.50;;;;;;5112129;28;20044;-69
2021/03/09 06:47:45;;;;;;;15.35;8.75;;;8.80;78.50;;;;;;5112223;28;20856;-74
2021/03/09 06:50:33;;;;;;;21.50;10.23;;;8.80;78.50;;;;;;5109174;28;20032;-73
2021/03/09 06:53:04;;;;;;;18.95;9.13;;;8.80;78.50;;;;;;5110209;28;20036;-72
2021/03/09 06:55:33;;;;;;;21.00;10.70;;;8.80;78.50;;;;;;5111911;28;20100;-73
2021/03/09 06:58:12;;;;;;;21.90;10.18;;;8.80;78.50;;;;;;5111168;28;20420;-76
2021/03/09 07:00:42;;;;;;;20.23;10.15;;;8.80;78.60;;;;;;5114748;28;20386;-75
2021/03/09 07:03:31;;;;;;;18.73;9.90;;;8.80;78.60;;;;;;5112843;27;20048;-75
2021/03/09 07:05:58;;;;;;;24.45;9.10;;;8.80;78.60;;;;;;5114510;28;20436;-75
2021/03/09 07:08:24;;;;;;;24.00;9.88;;;8.80;78.60;;;;;;5114977;28;20027;-70
2021/03/09 07:10:50;;;;;;;20.92;10.73;;;8.80;78.70;;;;;;5101415;28;20479;-72
2021/03/09 07:13:21;;;;;;;21.58;10.10;;;8.80;78.70;;;;;;5114982;28;20548;-79
2021/03/09 07:15:47;;;;;;;20.70;9.60;;;8.80;78.70;;;;;;5108593;28;20024;-71
2021/03/09 07:18:14;;;;;;;22.65;9.45;;;8.80;78.70;;;;;;5114954;27;20080;-72
2021/03/09 07:20:40;;;;;;;31.45;10.77;;;8.80;78.60;;;;;;5115403;28;20028;-73
2021/03/09 07:23:06;;;;;;;20.38;10.23;;;8.80;78.60;;;;;;5115469;28;20031;-72
2021/03/09 07:25:33;;;;;;;21.83;9.38;;;8.80;78.70;;;;;;5109356;28;20479;-72
2021/03/09 07:28:03;;;;;;;24.15;10.63;;;8.80;78.80;;;;;;5114919;28;20090;-71
2021/03/09 07:30:32;;;;;;;21.52;10.48;;;8.80;78.70;;;;;;5114845;28;20027;-71
2021/03/09 07:32:58;;;;;;;22.77;11.85;;;8.80;78.80;;;;;;5115098;28;20031;-72
2021/03/09 07:35:27;;;;;;;23.02;10.60;;;8.80;78.80;;;;;;5106891;28;20032;-72
2021/03/09 07:37:53;;;;;;;30.45;10.65;;;8.80;78.80;;;;;;5108757;28;20051;-72
2021/03/09 07:40:28;;;;;;;26.40;9.95;;;8.80;78.80;;;;;;5106259;28;20466;-72
2021/03/09 07:42:57;;;;;;;23.15;10.30;;;8.90;79.00;;;;;;5107129;28;20027;-79
2021/03/09 07:45:41;;;;;;;24.45;11.57;;;8.80;78.90;;;;;;5108614;28;20054;-78
2021/03/09 07:48:08;;;;;;;20.38;9.77;;;8.80;79.00;;;;;;5107473;28;20475;-77
2021/03/09 07:50:46;;;;;;;29.58;10.52;;;8.80;79.00;;;;;;5106679;28;20016;-72
2021/03/09 07:53:19;;;;;;;25.30;11.30;;;8.80;79.00;;;;;;5111310;28;20027;-72
2021/03/09 07:55:47;;;;;;;27.33;12.05;;;8.80;79.10;;;;;;5108533;28;20085;-73
2021/03/09 07:58:14;;;;;;;38.05;12.20;;;8.80;79.10;;;;;;5110522;28;20048;-72
2021/03/09 08:01:04;;;;;;;27.23;11.27;;;8.80;79.10;;;;;;5113687;28;20038;-72
2021/03/09 08:03:40;;;;;;;33.97;13.75;;;8.80;79.10;;;;;;5107919;28;20063;-72
2021/03/09 08:06:08;;;;;;;28.45;12.95;;;8.80;79.20;;;;;;5112227;27;20528;-72
2021/03/09 08:08:38;;;;;;;46.78;13.48;;;8.80;79.30;;;;;;5114554;28;20042;-72
2021/03/09 08:11:05;;;;;;;31.13;12.38;;;8.80;79.30;;;;;;5110175;28;20031;-72
2021/03/09 08:13:31;;;;;;;43.75;13.75;;;8.80;79.50;;;;;;5101614;28;20035;-72
2021/03/09 08:16:21;;;;;;;31.08;12.93;;;8.80;79.50;;;;;;5107621;28;20406;-72
2021/03/09 08:18:54;;;;;;;33.35;12.27;;;8.80;79.70;;;;;;5110039;28;20032;-73
2021/03/09 08:21:50;;;;;;;35.08;11.10;;;8.80;80.20;;;;;;5110814;28;20043;-72
2021/03/09 08:24:17;;;;;;;26.55;11.75;;;8.70;79.60;;;;;;5107152;28;20032;-72
2021/03/09 08:26:45;;;;;;;33.38;12.00;;;8.70;79.70;;;;;;5106307;28;20398;-72
2021/03/09 08:29:29;;;;;;;36.65;14.77;;;8.70;79.90;;;;;;5110295;28;20044;-72
2021/03/09 08:32:34;;;;;;;37.78;16.95;;;8.70;80.00;;;;;;5110694;28;20046;-72
2021/03/09 08:35:12;;;;;;;30.08;14.52;;;8.60;80.00;;;;;;5114142;28;20046;-72
2021/03/09 08:37:45;;;;;;;38.67;15.38;;;8.60;80.00;;;;;;5113222;28;20165;-72
2021/03/09 08:40:17;;;;;;;29.80;14.18;;;8.60;80.10;;;;;;5114705;28;20076;-72
2021/03/09 08:43:01;;;;;;;28.35;14.07;;;8.60;80.10;;;;;;5113193;28;20039;-70
2021/03/09 08:45:43;;;;;;;30.83;12.32;;;8.60;80.20;;;;;;5102820;28;20107;-68
2021/03/09 08:48:11;;;;;;;30.55;13.15;;;8.60;80.10;;;;;;5104695;28;20063;-70
2021/03/09 08:50:38;;;;;;;30.45;12.32;;;8.50;80.30;;;;;;5111626;28;20512;-70
2021/03/09 08:53:23;;;;;;;32.90;12.65;;;8.50;80.40;;;;;;5110042;28;20023;-70
2021/03/09 08:56:00;;;;;;;30.40;10.85;;;8.50;80.40;;;;;;5113798;28;20482;-70
2021/03/09 08:58:26;;;;;;;24.13;10.05;;;8.50;80.30;;;;;;5113238;28;20394;-69
2021/03/09 09:00:53;;;;;;;26.08;12.45;;;8.50;80.40;;;;;;5113288;28;20076;-72
2021/03/09 09:03:32;;;;;;;23.50;10.48;;;8.40;80.50;;;;;;5101867;28;20038;-72
2021/03/09 09:05:58;;;;;;;22.08;10.88;;;8.40;80.60;;;;;;5102762;28;21065;-69
2021/03/09 09:08:24;;;;;;;24.48;10.15;;;8.40;80.50;;;;;;5106148;28;20031;-70
2021/03/09 09:10:50;;;;;;;20.70;9.98;;;8.40;80.70;;;;;;5107645;28;20028;-71
2021/03/09 09:13:16;;;;;;;25.27;10.77;;;8.50;80.80;;;;;;5098210;28;20482;-70
2021/03/09 09:15:42;;;;;;;18.42;9.88;;;8.40;80.70;;;;;;5108337;28;20033;-71
2021/03/09 09:18:09;;;;;;;22.45;10.70;;;8.50;80.80;;;;;;5101942;28;20031;-71
2021/03/09 09:20:47;;;;;;;19.65;8.45;;;8.40;80.70;;;;;;5102062;28;20064;-71
2021/03/09 09:23:21;;;;;;;20.30;10.38;;;8.40;80.60;;;;;;5111968;28;20038;-71
2021/03/09 09:25:49;;;;;;;20.27;9.93;;;8.40;80.60;;;;;;5110118;28;20039;-71
2021/03/09 09:28:31;;;;;;;22.80;9.88;;;8.40;81.10;;;;;;5104390;28;20502;-71
2021/03/09 09:31:05;;;;;;;20.77;9.05;;;8.40;80.60;;;;;;5113372;28;20063;-71
2021/03/09 09:33:31;;;;;;;19.00;9.25;;;8.40;80.60;;;;;;5113457;28;20035;-72
2021/03/09 09:35:57;;;;;;;18.30;10.10;;;8.40;80.70;;;;;;5113467;28;20088;-71
2021/03/09 09:38:23;;;;;;;22.17;10.02;;;8.30;80.70;;;;;;5113282;28;20459;-71
2021/03/09 09:40:52;;;;;;;20.20;9.52;;;8.30;80.70;;;;;;5112783;28;20032;-71
2021/03/09 09:43:23;;;;;;;22.90;11.10;;;8.30;80.70;;;;;;5097724;28;20437;-71
2021/03/09 09:45:53;;;;;;;20.70;10.10;;;8.30;80.70;;;;;;5106554;28;20080;-72
2021/03/09 09:48:27;;;;;;;19.80;10.90;;;8.30;80.80;;;;;;5112914;28;20034;-71
2021/03/09 09:50:53;;;;;;;;;;;8.30;80.80;;;;;;5103524;28;20027;-71
2021/03/09 09:53:32;;;;;;;17.08;9.18;;;8.30;80.80;;;;;;5102785;28;19922;-72
2021/03/09 09:56:00;;;;;;;15.43;8.52;;;8.30;80.70;;;;;;5105038;28;20118;-71
2021/03/09 09:58:50;;;;;;;15.90;8.70;;;8.30;80.90;;;;;;5113133;28;20039;-71
2021/03/09 10:01:22;;;;;;;20.60;8.98;;;8.20;80.90;;;;;;5106684;28;20439;-71
2021/03/09 10:04:04;;;;;;;20.17;9.57;;;8.30;81.00;;;;;;5093897;28;20038;-71
2021/03/09 10:06:38;;;;;;;21.27;9.18;;;8.20;80.90;;;;;;5109651;28;20039;-71
2021/03/09 10:09:16;;;;;;;19.15;9.73;;;8.30;80.90;;;;;;5106071;28;20092;-71
2021/03/09 10:11:59;;;;;;;16.50;9.18;;;8.30;80.90;;;;;;5111696;28;20432;-70
2021/03/09 10:14:32;;;;;;;16.60;9.07;;;8.30;80.90;;;;;;5109605;28;20042;-71
2021/03/09 10:16:59;;;;;;;16.92;8.82;;;8.30;80.90;;;;;;5105359;28;20482;-71
2021/03/09 10:19:37;;;;;;;17.13;9.18;;;8.30;80.80;;;;;;5112963;28;20441;-71
2021/03/09 10:22:15;;;;;;;18.42;9.02;;;8.30;80.90;;;;;;5103169;28;20115;-71
2021/03/09 10:24:40;;;;;;;18.00;8.45;;;8.30;80.80;;;;;;5112056;28;20574;-71
2021/03/09 10:27:16;;;;;;;20.35;9.35;;;8.30;80.70;;;;;;5104366;28;20122;-71
2021/03/09 10:29:42;;;;;;;13.82;8.38;;;8.30;80.80;;;;;;5109008;28;20043;-71
2021/03/09 10:32:18;;;;;;;16.45;8.07;;;8.30;80.80;;;;;;5108850;28;20592;-71
2021/03/09 10:34:48;;;;;;;17.02;8.68;;;8.40;80.90;;;;;;5115108;28;20034;-71
2021/03/09 10:37:18;;;;;;;18.23;8.57;;;8.30;81.00;;;;;;5116267;28;20028;-71
2021/03/09 10:39:58;;;;;;;16.88;9.82;;;8.40;81.00;;;;;;5116847;28;20027;-71
2021/03/09 10:42:35;;;;;;;17.55;8.77;;;8.40;81.10;;;;;;5116401;27;20364;-71
2021/03/09 10:45:16;;;;;;;16.10;8.52;;;8.40;81.10;;;;;;5111323;28;20090;-71
2021/03/09 10:47:42;;;;;;;17.27;8.45;;;8.40;81.20;;;;;;5116125;28;20035;-71
2021/03/09 10:50:10;;;;;;;15.45;7.97;;;8.30;81.20;;;;;;5116322;28;20482;-71
2021/03/09 10:52:35;;;;;;;16.90;8.45;;;8.40;81.50;;;;;;5116485;28;20486;-71
2021/03/09 10:55:01;;;;;;;17.25;9.35;;;8.40;81.70;;;;;;5116849;28;20024;-71
2021/03/09 10:57:27;;;;;;;16.98;8.75;;;8.40;81.80;;;;;;5116274;28;20475;-71
2021/03/09 10:59:52;;;;;;;16.88;8.73;;;8.40;81.90;;;;;;5116070;28;20027;-70
2021/03/09 11:02:18;;;;;;;16.25;9.88;;;8.40;81.90;;;;;;5116112;28;20383;-68
2021/03/09 11:04:44;;;;;;;18.10;9.05;;;8.40;82.00;;;;;;5113840;28;20613;-71
2021/03/09 11:07:09;;;;;;;15.27;9.27;;;8.40;82.00;;;;;;5107504;28;20054;-72
2021/03/09 11:09:35;;;;;;;16.08;8.02;;;8.40;82.00;;;;;;5115847;28;20107;-71
2021/03/09 11:12:01;;;;;;;14.73;8.90;;;8.40;82.60;;;;;;5115217;28;20051;-72
2021/03/09 11:14:26;;;;;;;18.63;8.20;;;8.40;82.00;;;;;;5104496;28;20032;-69
2021/03/09 11:16:52;;;;;;;14.90;8.02;;;8.50;82.10;;;;;;5111861;28;20050;-72
2021/03/09 11:19:18;;;;;;;15.93;8.85;;;8.50;82.20;;;;;;5115372;28;20030;-72
2021/03/09 11:21:43;;;;;;;15.70;7.35;;;8.40;82.00;;;;;;5116104;28;20375;-69
2021/03/09 11:24:09;;;;;;;15.25;8.07;;;8.50;82.00;;;;;;5116363;28;20439;-70
2021/03/09 11:26:35;;;;;;;13.20;7.18;;;8.40;81.80;;;;;;5114228;28;20122;-69
2021/03/09 11:29:01;;;;;;;13.25;7.97;;;8.50;82.00;;;;;;5103061;28;20043;-71
2021/03/09 11:31:27;;;;;;;16.17;7.95;;;8.50;82.10;;;;;;5115446;28;20498;-71
2021/03/09 11:33:53;;;;;;;18.70;10.50;;;8.50;82.10;;;;;;5112866;28;20070;-72
2021/03/09 11:36:19;;;;;;;17.88;10.07;;;8.50;82.00;;;;;;5103728;28;20062;-75
2021/03/09 11:38:46;;;;;;;19.40;10.10;;;8.50;82.00;;;;;;5114032;28;20027;-73
2021/03/09 11:41:14;;;;;;;21.13;11.77;;;8.50;81.90;;;;;;5115611;28;20069;-75
2021/03/09 11:43:40;;;;;;;19.88;10.85;;;8.50;82.00;;;;;;5115364;28;20088;-73
2021/03/09 11:46:06;;;;;;;20.23;10.18;;;8.50;82.00;;;;;;5110260;28;20028;-71
2021/03/09 11:48:32;;;;;;;19.42;10.32;;;8.50;82.00;;;;;;5110391;28;20030;-75
2021/03/09 11:50:58;;;;;;;21.42;10.07;;;8.60;82.30;;;;;;5112027;28;20119;-75
2021/03/09 11:53:24;;;;;;;16.25;9.68;;;8.50;82.00;;;;;;5113904;28;20024;-75
2021/03/09 11:55:51;;;;;;;18.23;10.57;;;8.50;81.90;;;;;;5112289;28;20436;-72
2021/03/09 11:58:16;;;;;;;19.55;10.10;;;8.60;81.50;;;;;;5115197;27;20497;-72
2021/03/09 12:00:42;;;;;;;17.90;9.38;;;8.60;81.60;;;;;;5114530;28;20027;-75
2021/03/09 12:03:08;;;;;;;16.52;9.05;;;8.60;81.50;;;;;;5114492;28;20032;-72
2021/03/09 12:05:33;;;;;;;18.35;9.95;;;8.50;81.30;;;;;;5114400;28;20096;-72
2021/03/09 12:07:59;;;;;;;17.17;9.02;;;8.50;81.00;;;;;;5114246;28;20046;-76
2021/03/09 12:10:25;;;;;;;16.88;9.10;;;8.60;80.80;;;;;;5115060;28;20023;-75
2021/03/09 12:12:53;;;;;;;18.98;9.48;;;8.60;80.70;;;;;;5115146;28;20031;-73
2021/03/09 12:15:19;;;;;;;31.23;9.43;;;8.60;80.90;;;;;;5114009;28;20416;-74
2021/03/09 12:17:45;;;;;;;16.23;10.05;;;8.60;80.70;;;;;;5114968;28;20391;-73
2021/03/09 12:20:11;;;;;;;17.65;9.30;;;8.70;80.40;;;;;;5114831;28;20039;-76
2021/03/09 12:22:36;;;;;;;16.10;8.55;;;8.70;80.50;;;;;;5106108;28;20027;-75
2021/03/09 12:25:04;;;;;;;15.18;8.63;;;8.70;80.70;;;;;;5111802;28;20016;-72
2021/03/09 12:27:29;;;;;;;17.60;9.63;;;8.70;80.40;;;;;;5100486;28;20086;-72
2021/03/09 12:29:55;;;;;;;16.40;8.38;;;8.70;80.80;;;;;;5101528;28;20558;-72
2021/03/09 12:32:21;;;;;;;18.45;9.45;;;8.70;79.90;;;;;;5113688;28;20054;-72
2021/03/09 12:34:46;;;;;;;21.20;10.68;;;8.70;79.80;;;;;;5111618;28;20036;-72
2021/03/09 12:37:12;;;;;;;18.80;10.93;;;8.70;79.90;;;;;;5113659;27;20031;-72
2021/03/09 12:39:38;;;;;;;17.05;9.63;;;8.70;79.80;;;;;;5113485;28;20080;-72
2021/03/09 12:42:04;;;;;;;15.73;8.13;;;8.80;80.00;;;;;;5113431;27;20134;-72
2021/03/09 12:44:29;;;;;;;15.52;8.45;;;8.80;79.70;;;;;;5112997;28;20023;-72
2021/03/09 12:46:55;;;;;;;18.10;9.93;;;8.80;79.30;;;;;;5113437;28;20051;-72
2021/03/09 12:49:21;;;;;;;12.32;6.88;;;8.80;79.10;;;;;;5113135;28;20028;-73
2021/03/09 12:51:46;;;;;;;13.68;7.93;;;8.90;79.10;;;;;;5110576;28;20043;-72
2021/03/09 12:54:12;;;;;;;14.73;8.82;;;8.90;79.30;;;;;;5109095;28;20466;-72